Terminal Aerodrome Forecast
Issued by NWS El Paso, TX

Home | Current Version | Previous Version | Text Only | Print | Product List | Glossary On
Versions: 1 2 3 4 5 6 7 8 9 10 11 12 13 14 15
000
FTUS44 KEPZ 012338
TAFELP
TAF
KELP 012338Z 0200/0224 13008KT P6SM VCTS SCT070CB SCT250
     FM021200 22007KT P6SM SCT100
     FM021600 17008KT P6SM FEW070=

USA.gov is the U.S. government's official web portal to all federal, state and local government web resources and services.